createdAt,value
2022-10-05T00:01:00.219Z,15.09
2022-10-05T00:03:48.524Z,15.10
2022-10-05T00:10:57.865Z,15.11
2022-10-05T00:14:43.184Z,15.11
2022-10-05T00:17:33.726Z,15.09
2022-10-05T00:20:42.305Z,15.06
2022-10-05T00:23:17.914Z,15.02
2022-10-05T00:30:45.254Z,14.93
2022-10-05T00:42:18.642Z,14.81
2022-10-05T00:45:11.075Z,14.78
2022-10-05T00:48:06.341Z,14.76
2022-10-05T00:51:09.561Z,14.74
2022-10-05T00:54:18.612Z,14.72
2022-10-05T00:57:24.795Z,14.70
2022-10-05T01:04:59.227Z,14.65
2022-10-05T01:08:00.318Z,14.64
2022-10-05T01:15:39.873Z,14.60
2022-10-05T01:18:52.567Z,14.58
2022-10-05T01:21:57.781Z,14.56
2022-10-05T01:25:08.110Z,14.55
2022-10-05T01:28:20.144Z,14.53
2022-10-05T01:31:10.731Z,14.51
2022-10-05T01:33:53.923Z,14.49
2022-10-05T01:36:57.551Z,14.36
2022-10-05T01:40:06.262Z,14.07
2022-10-05T01:43:19.830Z,13.82
2022-10-05T01:46:25.133Z,13.64
2022-10-05T01:49:22.852Z,13.50
2022-10-05T01:53:09.126Z,13.38
2022-10-05T01:56:22.658Z,13.27
2022-10-05T01:59:20.675Z,13.21
2022-10-05T02:02:39.665Z,13.17
2022-10-05T02:06:07.680Z,13.15
2022-10-05T02:09:01.831Z,13.13
2022-10-05T02:12:12.982Z,13.11
2022-10-05T02:19:25.156Z,13.08
2022-10-05T02:22:26.511Z,13.08
2022-10-05T02:25:26.932Z,13.06
2022-10-05T02:28:38.403Z,13.05
2022-10-05T02:35:47.798Z,13.05
2022-10-05T02:38:44.052Z,13.05
2022-10-05T02:45:58.721Z,13.03
2022-10-05T02:48:54.415Z,13.02
2022-10-05T02:51:56.367Z,13.00
2022-10-05T02:59:06.861Z,12.96
2022-10-05T03:02:18.943Z,12.94
2022-10-05T03:05:47.171Z,12.92
2022-10-05T03:09:00.357Z,12.89
2022-10-05T03:12:13.052Z,12.87
2022-10-05T03:14:56.763Z,12.83
2022-10-05T03:18:18.731Z,12.80
2022-10-05T03:29:25.232Z,12.63
2022-10-05T03:32:31.645Z,12.56
2022-10-05T03:35:27.635Z,12.48
2022-10-05T03:38:25.110Z,12.40
2022-10-05T03:41:40.219Z,12.31
2022-10-05T03:52:43.632Z,12.09
2022-10-05T03:55:44.061Z,12.00
2022-10-05T03:58:56.645Z,11.95
2022-10-05T04:01:55.499Z,11.90
2022-10-05T04:08:20.772Z,11.82
2022-10-05T04:15:37.783Z,11.72
2022-10-05T04:19:40.554Z,11.68
2022-10-05T04:22:53.796Z,11.62
2022-10-05T04:26:04.604Z,11.59
2022-10-05T04:30:03.262Z,11.56
2022-10-05T04:33:13.248Z,11.51
2022-10-05T04:53:45.937Z,11.29
2022-10-05T04:56:51.253Z,11.26
2022-10-05T05:04:20.196Z,11.21
2022-10-05T05:11:34.936Z,11.16
2022-10-05T05:14:43.664Z,11.14
2022-10-05T05:22:16.014Z,11.10
2022-10-05T05:25:31.007Z,11.08
2022-10-05T05:28:27.490Z,11.08
2022-10-05T05:31:42.454Z,11.06
2022-10-05T05:35:38.214Z,11.03
2022-10-05T05:43:18.114Z,11.01
2022-10-05T05:47:05.525Z,11.00
2022-10-05T05:50:23.066Z,11.00
2022-10-05T05:53:33.372Z,11.00
2022-10-05T06:00:46.278Z,11.00
2022-10-05T06:26:30.657Z,10.92
2022-10-05T06:29:23.982Z,10.92
2022-10-05T06:36:18.710Z,10.95
2022-10-05T06:43:21.414Z,10.94
2022-10-05T06:46:52.471Z,10.93
2022-10-05T06:50:49.416Z,10.92
2022-10-05T06:58:48.342Z,10.92
2022-10-05T07:06:08.882Z,10.90
2022-10-05T07:09:27.379Z,10.89
2022-10-05T07:16:59.576Z,10.89
2022-10-05T07:20:15.815Z,10.88
2022-10-05T07:23:28.293Z,10.88
2022-10-05T07:30:48.233Z,10.91
2022-10-05T07:33:59.988Z,10.93
2022-10-05T07:37:28.136Z,10.95
2022-10-05T07:40:40.442Z,10.97
2022-10-05T07:44:38.284Z,10.98
2022-10-05T07:47:55.720Z,11.01
2022-10-05T07:55:47.870Z,11.03
2022-10-05T07:58:43.669Z,11.04
2022-10-05T08:01:55.045Z,11.04
2022-10-05T08:05:20.985Z,11.05
2022-10-05T08:12:32.902Z,11.08
2022-10-05T08:15:55.701Z,11.10
2022-10-05T08:19:22.134Z,11.11
2022-10-05T08:22:13.833Z,11.12
2022-10-05T08:25:07.889Z,11.12
2022-10-05T08:32:21.986Z,11.16
2022-10-05T08:35:07.695Z,11.17
2022-10-05T08:37:45.790Z,11.18
2022-10-05T08:41:04.885Z,11.19
2022-10-05T08:44:45.767Z,11.19
2022-10-05T08:48:31.414Z,11.19
2022-10-05T08:55:40.621Z,11.20
2022-10-05T08:59:05.500Z,11.21
2022-10-05T09:02:19.762Z,11.22
2022-10-05T09:05:21.958Z,11.24
2022-10-05T09:08:44.944Z,11.26
2022-10-05T09:12:31.374Z,11.30
2022-10-05T09:16:02.818Z,11.33
2022-10-05T09:22:59.131Z,11.37
2022-10-05T09:26:09.362Z,11.44
2022-10-05T09:33:25.187Z,11.56
2022-10-05T09:36:52.861Z,11.66
2022-10-05T09:40:28.944Z,11.75
2022-10-05T09:43:31.609Z,11.93
2022-10-05T09:46:37.016Z,12.01
2022-10-05T09:49:34.312Z,11.99
2022-10-05T09:52:31.945Z,12.09
2022-10-05T09:55:50.699Z,12.23
2022-10-05T09:59:15.577Z,12.41
2022-10-05T10:01:51.293Z,12.83
2022-10-05T10:05:06.433Z,13.43
2022-10-05T10:08:04.184Z,13.81
2022-10-05T10:11:17.720Z,13.99
2022-10-05T10:14:12.485Z,13.99
2022-10-05T10:17:34.994Z,13.66
2022-10-05T10:20:25.405Z,13.58
2022-10-05T10:23:26.917Z,13.68
2022-10-05T10:26:51.985Z,14.29
2022-10-05T10:29:58.737Z,15.27
2022-10-05T10:32:40.572Z,15.48
2022-10-05T10:35:55.295Z,15.58
2022-10-05T10:39:00.127Z,16.07
2022-10-05T10:41:39.719Z,16.69
2022-10-05T10:44:30.042Z,18.67
2022-10-05T10:47:09.893Z,18.70
2022-10-05T10:49:44.566Z,18.59
2022-10-05T10:52:20.931Z,19.09
2022-10-05T10:54:56.080Z,19.16
2022-10-05T10:57:27.387Z,18.43
2022-10-05T11:00:22.237Z,17.81
2022-10-05T11:03:19.102Z,17.03
2022-10-05T11:06:01.797Z,16.47
2022-10-05T11:09:12.714Z,15.87
2022-10-05T11:12:11.686Z,15.43
2022-10-05T11:14:54.377Z,17.39
2022-10-05T11:17:49.971Z,20.80
2022-10-05T11:20:28.550Z,23.55
2022-10-05T11:22:59.184Z,24.04
2022-10-05T11:25:46.977Z,24.30
2022-10-05T11:28:43.335Z,23.29
2022-10-05T11:31:31.672Z,21.64
2022-10-05T11:34:16.787Z,20.33
2022-10-05T11:37:01.030Z,20.16
2022-10-05T11:39:42.750Z,20.98
2022-10-05T11:42:36.711Z,20.99
2022-10-05T11:45:18.663Z,20.79
2022-10-05T11:47:51.929Z,19.98
2022-10-05T11:50:21.099Z,18.96
2022-10-05T11:52:55.788Z,18.41
2022-10-05T11:55:27.179Z,20.00
2022-10-05T11:57:56.163Z,21.30
2022-10-05T12:00:25.430Z,23.19
2022-10-05T12:03:01.410Z,25.45
2022-10-05T12:05:32.254Z,27.13
2022-10-05T12:08:11.191Z,28.26
2022-10-05T12:10:44.130Z,29.17
2022-10-05T12:13:18.546Z,29.73
2022-10-05T12:15:53.158Z,30.15
2022-10-05T12:18:41.516Z,29.56
2022-10-05T12:21:14.760Z,28.95
2022-10-05T12:23:45.758Z,29.34
2022-10-05T12:26:14.827Z,29.74
2022-10-05T12:28:46.357Z,30.46
2022-10-05T12:31:22.207Z,30.23
2022-10-05T12:33:54.598Z,30.13
2022-10-05T12:36:31.883Z,30.35
2022-10-05T12:39:13.788Z,31.68
2022-10-05T12:41:46.347Z,30.27
2022-10-05T12:44:16.473Z,28.56
2022-10-05T12:46:50.092Z,26.71
2022-10-05T12:49:28.194Z,24.83
2022-10-05T12:51:57.750Z,23.05
2022-10-05T12:54:34.678Z,21.60
2022-10-05T12:57:07.286Z,20.53
2022-10-05T12:59:39.311Z,19.63
2022-10-05T13:02:15.680Z,18.58
2022-10-05T13:04:48.036Z,17.43
2022-10-05T13:07:25.502Z,16.20
2022-10-05T13:10:12.281Z,15.17
2022-10-05T13:12:55.221Z,14.19
2022-10-05T13:15:27.392Z,13.52
2022-10-05T13:18:13.961Z,13.09
2022-10-05T13:21:13.872Z,12.92
2022-10-05T13:23:59.993Z,12.63
2022-10-05T13:27:21.422Z,12.24
2022-10-05T13:30:29.778Z,11.88
2022-10-05T13:33:05.362Z,11.54
2022-10-05T13:35:59.605Z,11.15
2022-10-05T13:39:03.078Z,10.84
2022-10-05T13:42:13.321Z,13.02
2022-10-05T13:45:23.414Z,16.06
2022-10-05T13:48:46.267Z,18.09
2022-10-05T13:51:39.614Z,19.52
2022-10-05T13:54:23.167Z,20.49
2022-10-05T13:57:29.991Z,21.32
2022-10-05T14:00:03.063Z,21.68
2022-10-05T14:02:41.792Z,21.81
2022-10-05T14:05:16.388Z,21.91
2022-10-05T14:07:50.450Z,22.06
2022-10-05T14:10:32.343Z,22.19
2022-10-05T14:13:17.126Z,22.07
2022-10-05T14:15:56.184Z,22.01
2022-10-05T14:18:24.791Z,21.85
2022-10-05T14:20:59.814Z,21.62
2022-10-05T14:23:27.686Z,21.40
2022-10-05T14:25:56.218Z,21.00
2022-10-05T14:28:29.145Z,19.73
2022-10-05T14:31:00.973Z,18.75
2022-10-05T14:33:31.860Z,17.72
2022-10-05T14:36:03.026Z,16.85
2022-10-05T14:38:35.020Z,16.05
2022-10-05T14:41:19.829Z,15.49
2022-10-05T14:43:52.061Z,15.08
2022-10-05T14:46:27.956Z,14.83
2022-10-05T14:49:19.858Z,14.85
2022-10-05T14:51:51.299Z,15.48
2022-10-05T14:54:27.442Z,15.83
2022-10-05T14:57:11.237Z,16.09
2022-10-05T14:59:56.188Z,16.21
2022-10-05T15:02:41.800Z,15.85
2022-10-05T15:05:15.311Z,15.54
2022-10-05T15:07:49.451Z,15.36
2022-10-05T15:10:29.192Z,15.10
2022-10-05T15:13:14.665Z,14.57
2022-10-05T15:15:55.639Z,14.13
2022-10-05T15:18:32.477Z,13.80
2022-10-05T15:21:12.381Z,13.56
2022-10-05T15:23:42.351Z,13.45
2022-10-05T15:26:48.674Z,13.27
2022-10-05T15:29:36.061Z,13.17
2022-10-05T15:32:49.912Z,13.16
2022-10-05T15:35:54.298Z,13.38
2022-10-05T15:39:00.233Z,13.55
2022-10-05T15:41:59.880Z,13.63
2022-10-05T15:44:57.019Z,13.68
2022-10-05T15:47:35.371Z,13.64
2022-10-05T15:50:06.955Z,13.57
2022-10-05T15:52:43.331Z,13.53
2022-10-05T15:55:55.182Z,13.44
2022-10-05T15:58:46.726Z,13.34
2022-10-05T16:02:00.422Z,13.26
2022-10-05T16:04:37.742Z,13.18
2022-10-05T16:08:07.297Z,13.10
2022-10-05T16:11:19.267Z,13.07
2022-10-05T16:14:05.719Z,13.04
2022-10-05T16:16:53.648Z,13.01
2022-10-05T16:20:14.246Z,12.94
2022-10-05T16:22:51.582Z,12.82
2022-10-05T16:25:41.666Z,12.72
2022-10-05T16:28:57.543Z,12.55
2022-10-05T16:31:54.329Z,12.41
2022-10-05T16:35:14.052Z,12.25
2022-10-05T16:38:24.063Z,12.13
2022-10-05T16:41:18.813Z,12.06
2022-10-05T16:44:32.215Z,11.99
2022-10-05T16:47:43.548Z,11.93
2022-10-05T16:50:58.508Z,11.87
2022-10-05T16:54:17.840Z,11.83
2022-10-05T16:57:28.316Z,11.84
2022-10-05T17:00:44.649Z,11.88
2022-10-05T17:03:24.667Z,11.92
2022-10-05T17:07:02.684Z,11.95
2022-10-05T17:10:28.269Z,12.00
2022-10-05T17:13:15.906Z,12.06
2022-10-05T17:16:27.047Z,12.11
2022-10-05T17:19:42.066Z,12.10
2022-10-05T17:22:32.544Z,12.02
2022-10-05T17:25:44.807Z,11.93
2022-10-05T17:28:23.966Z,11.81
2022-10-05T17:32:02.750Z,11.66
2022-10-05T17:35:18.497Z,11.52
2022-10-05T17:38:45.037Z,11.36
2022-10-05T17:42:13.226Z,11.24
2022-10-05T17:45:39.429Z,11.11
2022-10-05T17:49:06.147Z,11.00
2022-10-05T17:52:38.160Z,10.92
2022-10-05T17:55:46.327Z,10.83
2022-10-05T17:58:58.122Z,10.75
2022-10-05T18:02:20.783Z,10.67
2022-10-05T18:05:27.222Z,10.60
2022-10-05T18:08:38.543Z,10.54
2022-10-05T18:12:02.218Z,10.49
2022-10-05T18:15:09.673Z,10.42
2022-10-05T18:18:31.770Z,10.36
2022-10-05T18:21:27.542Z,10.31
2022-10-05T18:24:43.905Z,10.27
2022-10-05T18:28:06.773Z,10.23
2022-10-05T18:31:21.563Z,10.18
2022-10-05T18:34:32.842Z,10.15
2022-10-05T18:37:47.865Z,10.12
2022-10-05T18:40:59.610Z,10.09
2022-10-05T18:44:19.099Z,10.06
2022-10-05T18:47:07.600Z,10.04
2022-10-05T18:50:33.799Z,10.00
2022-10-05T18:53:44.195Z,9.98
2022-10-05T18:56:53.910Z,9.97
2022-10-05T19:00:07.039Z,9.95
2022-10-05T19:03:17.545Z,9.93
2022-10-05T19:06:38.434Z,9.90
2022-10-05T19:09:25.080Z,9.87
2022-10-05T19:12:41.675Z,9.84
2022-10-05T19:15:58.821Z,9.82
2022-10-05T19:19:12.818Z,9.80
2022-10-05T19:22:28.287Z,9.79
2022-10-05T19:25:28.208Z,9.79
2022-10-05T19:28:38.759Z,9.79
2022-10-05T19:31:37.383Z,9.80
2022-10-05T19:34:54.044Z,9.80
2022-10-05T19:37:58.991Z,9.80
2022-10-05T19:41:05.850Z,9.79
2022-10-05T19:44:17.213Z,9.76
2022-10-05T19:47:18.848Z,9.74
2022-10-05T19:50:28.744Z,9.71
2022-10-05T19:53:24.012Z,9.69
2022-10-05T19:56:19.785Z,9.67
2022-10-05T19:59:13.271Z,9.65
2022-10-05T20:02:37.512Z,9.62
2022-10-05T20:05:33.505Z,9.60
2022-10-05T20:08:44.905Z,9.59
2022-10-05T20:11:54.075Z,9.59
2022-10-05T20:15:26.164Z,9.57
2022-10-05T20:19:06.195Z,9.57
2022-10-05T20:22:27.287Z,9.56
2022-10-05T20:25:37.076Z,9.58
2022-10-05T20:28:46.333Z,9.60
2022-10-05T20:31:34.510Z,9.62
2022-10-05T20:34:43.908Z,9.64
2022-10-05T20:37:52.105Z,9.66
2022-10-05T20:41:00.297Z,9.68
2022-10-05T20:44:10.558Z,9.71
2022-10-05T20:47:22.572Z,9.71
2022-10-05T20:50:32.233Z,9.72
2022-10-05T20:53:41.662Z,9.73
2022-10-05T20:56:56.928Z,9.72
2022-10-05T21:00:06.262Z,9.70
2022-10-05T21:03:15.460Z,9.68
2022-10-05T21:06:27.604Z,9.66
2022-10-05T21:09:37.861Z,9.64
2022-10-05T21:13:03.222Z,9.62
2022-10-05T21:15:56.505Z,9.62
2022-10-05T21:18:48.610Z,9.62
2022-10-05T21:21:58.663Z,9.63
2022-10-05T21:25:08.850Z,9.63
2022-10-05T21:32:18.618Z,9.68
2022-10-05T21:35:45.361Z,9.71
2022-10-05T21:38:54.173Z,9.70
2022-10-05T21:42:10.213Z,9.70
2022-10-05T21:45:20.623Z,9.72
2022-10-05T21:48:36.276Z,9.77
2022-10-05T21:52:22.113Z,9.80
2022-10-05T21:55:45.304Z,9.79
2022-10-05T21:59:30.456Z,9.74
2022-10-05T22:02:40.678Z,9.68
2022-10-05T22:05:49.118Z,9.61
2022-10-05T22:09:34.804Z,9.56
2022-10-05T22:12:43.301Z,9.49
2022-10-05T22:15:40.196Z,9.45
2022-10-05T22:18:48.539Z,9.42
2022-10-05T22:26:00.385Z,9.42
2022-10-05T22:29:09.087Z,9.43
2022-10-05T22:32:26.430Z,9.46
2022-10-05T22:35:35.340Z,9.48
2022-10-05T22:38:46.034Z,9.54
2022-10-05T22:41:59.897Z,9.60
2022-10-05T22:45:10.251Z,9.63
2022-10-05T22:48:38.903Z,9.62
2022-10-05T22:52:10.225Z,9.58
2022-10-05T22:55:36.387Z,9.53
2022-10-05T22:58:45.447Z,9.47
2022-10-05T23:05:58.371Z,9.40
2022-10-05T23:13:08.302Z,9.35
2022-10-05T23:16:54.811Z,9.34
2022-10-05T23:24:28.666Z,9.32
2022-10-05T23:31:38.380Z,9.29
2022-10-05T23:35:04.834Z,9.28
2022-10-05T23:38:13.380Z,9.26
2022-10-05T23:54:18.215Z,9.23
